createdAt,value
2018-09-17T00:00:10.804Z,11.50
2018-09-17T00:00:41.958Z,13.10
2018-09-17T00:01:13.102Z,12.63
2018-09-17T00:01:44.219Z,12.67
2018-09-17T00:02:15.344Z,14.17
2018-09-17T00:02:46.459Z,13.67
2018-09-17T00:03:17.572Z,16.97
2018-09-17T00:03:48.724Z,16.10
2018-09-17T00:04:19.834Z,13.40
2018-09-17T00:04:50.979Z,14.93
2018-09-17T00:05:22.126Z,18.07
2018-09-17T00:05:53.244Z,20.97
2018-09-17T00:06:24.358Z,17.17
2018-09-17T00:06:55.800Z,18.57
2018-09-17T00:07:26.903Z,15.90
2018-09-17T00:07:58.120Z,16.67
2018-09-17T00:08:29.240Z,17.37
2018-09-17T00:09:00.378Z,15.43
2018-09-17T00:09:31.503Z,15.57
2018-09-17T00:10:02.643Z,15.47
2018-09-17T00:10:33.790Z,15.53
2018-09-17T00:11:04.924Z,15.13
2018-09-17T00:11:36.053Z,15.20
2018-09-17T00:12:07.215Z,15.13
2018-09-17T00:12:38.334Z,14.67
2018-09-17T00:13:09.484Z,14.53
2018-09-17T00:13:40.599Z,17.70
2018-09-17T00:14:11.718Z,14.20
2018-09-17T00:14:42.852Z,13.70
2018-09-17T00:15:13.972Z,14.87
2018-09-17T00:15:45.137Z,13.70
2018-09-17T00:16:16.294Z,14.15
2018-09-17T00:16:47.407Z,12.97
2018-09-17T00:17:18.519Z,14.20
2018-09-17T00:17:49.642Z,13.83
2018-09-17T00:18:20.774Z,13.75
2018-09-17T00:18:51.895Z,12.68
2018-09-17T00:19:23.048Z,13.35
2018-09-17T00:19:54.168Z,14.05
2018-09-17T00:20:25.327Z,15.35
2018-09-17T00:20:56.451Z,15.53
2018-09-17T00:21:27.598Z,13.50
2018-09-17T00:21:58.731Z,13.05
2018-09-17T00:22:29.877Z,12.37
2018-09-17T00:23:00.988Z,12.53
2018-09-17T00:23:32.094Z,15.13
2018-09-17T00:24:03.221Z,12.82
2018-09-17T00:24:34.383Z,13.13
2018-09-17T00:25:05.495Z,11.95
2018-09-17T00:25:36.635Z,12.80
2018-09-17T00:26:07.746Z,11.03
2018-09-17T00:26:38.874Z,12.63
2018-09-17T00:27:09.995Z,12.60
2018-09-17T00:27:41.126Z,11.90
2018-09-17T00:28:12.255Z,13.43
2018-09-17T00:28:43.367Z,15.00
2018-09-17T00:29:14.505Z,13.95
2018-09-17T00:29:45.664Z,12.80
2018-09-17T00:30:16.816Z,15.38
2018-09-17T00:30:47.949Z,13.32
2018-09-17T00:31:19.126Z,14.15
2018-09-17T00:31:50.263Z,12.33
2018-09-17T00:32:21.425Z,13.88
2018-09-17T00:32:52.544Z,13.38
2018-09-17T00:33:23.659Z,13.38
2018-09-17T00:33:54.784Z,15.72
2018-09-17T00:34:25.936Z,14.50
2018-09-17T00:34:57.055Z,12.73
2018-09-17T00:35:28.179Z,14.25
2018-09-17T00:35:59.297Z,13.13
2018-09-17T00:36:30.438Z,14.18
2018-09-17T00:37:01.573Z,13.00
2018-09-17T00:37:32.758Z,13.22
2018-09-17T00:38:03.899Z,13.08
2018-09-17T00:38:35.026Z,13.25
2018-09-17T00:39:06.162Z,16.42
2018-09-17T00:39:37.306Z,14.60
2018-09-17T00:40:08.419Z,16.23
2018-09-17T00:40:39.535Z,13.65
2018-09-17T00:41:10.664Z,15.18
2018-09-17T00:41:41.813Z,14.05
2018-09-17T00:42:12.936Z,13.72
2018-09-17T00:42:44.098Z,12.90
2018-09-17T00:43:15.232Z,14.25
2018-09-17T00:43:46.354Z,14.03
2018-09-17T00:44:17.475Z,15.27
2018-09-17T00:44:48.626Z,13.98
2018-09-17T00:45:19.743Z,14.05
2018-09-17T00:45:50.850Z,14.07
2018-09-17T00:46:21.981Z,15.03
2018-09-17T00:46:53.113Z,14.50
2018-09-17T00:47:24.262Z,15.97
2018-09-17T00:47:55.443Z,14.58
2018-09-17T00:48:26.575Z,13.85
2018-09-17T00:48:57.691Z,13.83
2018-09-17T00:49:28.835Z,13.90
2018-09-17T00:49:59.963Z,13.68
2018-09-17T00:50:31.080Z,15.70
2018-09-17T00:51:02.248Z,14.25
2018-09-17T00:51:33.361Z,13.78
2018-09-17T00:52:04.472Z,13.75
2018-09-17T00:52:35.650Z,13.40
2018-09-17T00:53:06.772Z,14.07
2018-09-17T00:53:37.894Z,12.95
2018-09-17T00:54:09.013Z,13.30
2018-09-17T00:54:40.126Z,13.85
2018-09-17T00:55:11.302Z,13.32
2018-09-17T00:55:42.444Z,13.20
2018-09-17T00:56:13.587Z,15.18
2018-09-17T00:56:44.716Z,12.47
2018-09-17T00:57:15.865Z,13.50
2018-09-17T00:57:47.052Z,12.40
2018-09-17T00:58:18.207Z,14.30
2018-09-17T00:58:49.355Z,12.47
2018-09-17T00:59:20.484Z,12.85
2018-09-17T00:59:51.622Z,12.73
2018-09-17T01:00:22.740Z,13.00
2018-09-17T01:00:53.871Z,15.78
2018-09-17T01:01:25.017Z,12.55
2018-09-17T01:01:56.126Z,13.18
2018-09-17T01:02:27.268Z,12.70
2018-09-17T01:02:58.383Z,12.23
2018-09-17T01:03:29.525Z,11.80
2018-09-17T01:04:00.706Z,12.95
2018-09-17T01:04:31.848Z,12.20
2018-09-17T01:05:03.011Z,12.33
2018-09-17T01:05:34.148Z,12.15
2018-09-17T01:06:05.268Z,16.05
2018-09-17T01:06:36.410Z,12.15
2018-09-17T01:07:07.532Z,12.00
2018-09-17T01:07:38.676Z,12.43
2018-09-17T01:08:09.812Z,12.15
2018-09-17T01:08:40.941Z,11.90
2018-09-17T01:09:12.089Z,11.40
2018-09-17T01:09:43.204Z,11.70
2018-09-17T01:10:14.311Z,12.30
2018-09-17T01:10:45.431Z,11.95
2018-09-17T01:11:16.555Z,15.90
2018-09-17T01:11:47.681Z,11.93
2018-09-17T01:12:18.837Z,12.10
2018-09-17T01:12:49.988Z,11.15
2018-09-17T01:13:21.102Z,11.83
2018-09-17T01:13:52.248Z,12.47
2018-09-17T01:14:23.391Z,11.43
2018-09-17T01:14:54.509Z,11.83
2018-09-17T01:15:25.615Z,12.43
2018-09-17T01:15:56.732Z,10.95
2018-09-17T01:16:27.841Z,12.17
2018-09-17T01:16:58.950Z,11.30
2018-09-17T01:17:30.075Z,11.40
2018-09-17T01:18:01.234Z,14.30
2018-09-17T01:18:32.387Z,10.97
2018-09-17T01:19:03.519Z,11.27
2018-09-17T01:19:34.652Z,11.40
2018-09-17T01:20:05.769Z,10.73
2018-09-17T01:20:36.883Z,11.68
2018-09-17T01:21:08.010Z,11.12
2018-09-17T01:21:39.153Z,11.25
2018-09-17T01:22:10.279Z,10.80
2018-09-17T01:22:41.406Z,10.82
2018-09-17T01:23:12.526Z,12.23
2018-09-17T01:23:43.678Z,11.35
2018-09-17T01:24:14.879Z,10.48
2018-09-17T01:24:46.030Z,10.60
2018-09-17T01:25:17.158Z,11.30
2018-09-17T01:25:48.321Z,10.93
2018-09-17T01:26:19.438Z,10.88
2018-09-17T01:26:50.569Z,10.80
2018-09-17T01:27:21.725Z,10.93
2018-09-17T01:27:52.865Z,11.00
2018-09-17T01:28:23.998Z,11.40
2018-09-17T01:28:55.111Z,11.00
2018-09-17T01:29:26.303Z,10.70
2018-09-17T01:29:57.405Z,10.33
2018-09-17T01:30:28.585Z,10.97
2018-09-17T01:30:59.683Z,10.80
2018-09-17T01:31:30.794Z,10.68
2018-09-17T01:32:01.910Z,11.43
2018-09-17T01:32:33.037Z,11.43
2018-09-17T01:33:04.177Z,10.67
2018-09-17T01:33:35.289Z,10.53
2018-09-17T01:34:06.447Z,14.13
2018-09-17T01:34:37.625Z,10.45
2018-09-17T01:35:08.750Z,10.38
2018-09-17T01:35:39.864Z,10.05
2018-09-17T01:36:11.017Z,11.12
2018-09-17T01:36:42.127Z,10.28
2018-09-17T01:37:13.250Z,10.55
2018-09-17T01:37:44.385Z,10.98
2018-09-17T01:38:15.527Z,10.60
2018-09-17T01:38:46.648Z,11.45
2018-09-17T01:39:17.838Z,11.07
2018-09-17T01:39:48.958Z,11.05
2018-09-17T01:40:20.075Z,10.82
2018-09-17T01:40:51.201Z,10.97
2018-09-17T01:41:22.313Z,10.80
2018-09-17T01:41:53.422Z,10.77
2018-09-17T01:42:24.552Z,9.60
2018-09-17T01:42:55.673Z,10.75
2018-09-17T01:43:26.859Z,11.10
2018-09-17T01:43:57.996Z,14.20
2018-09-17T01:44:29.116Z,12.00
2018-09-17T01:45:00.236Z,13.13
2018-09-17T01:45:31.358Z,11.97
2018-09-17T01:46:02.549Z,11.43
2018-09-17T01:46:33.637Z,11.28
2018-09-17T01:47:04.793Z,11.43
2018-09-17T01:47:35.910Z,11.43
2018-09-17T01:48:07.057Z,10.78
2018-09-17T01:48:38.169Z,11.30
2018-09-17T01:49:09.285Z,10.25
2018-09-17T01:49:40.396Z,10.23
2018-09-17T01:50:11.563Z,11.73
2018-09-17T01:50:42.708Z,10.23
2018-09-17T01:51:13.832Z,12.68
2018-09-17T01:51:44.956Z,10.30
2018-09-17T01:52:16.109Z,9.97
2018-09-17T01:52:47.249Z,9.93
2018-09-17T01:53:18.385Z,11.90
2018-09-17T01:53:49.497Z,11.53
2018-09-17T01:54:20.601Z,9.73
2018-09-17T01:54:51.738Z,11.28
2018-09-17T01:55:22.896Z,10.40
2018-09-17T01:55:54.038Z,10.03
2018-09-17T01:56:25.151Z,10.08
2018-09-17T01:56:56.268Z,10.18
2018-09-17T01:57:27.430Z,9.85
2018-09-17T01:57:58.543Z,11.10
2018-09-17T01:58:29.703Z,10.80
2018-09-17T01:59:00.836Z,11.60
2018-09-17T01:59:31.967Z,9.90
2018-09-17T02:00:03.100Z,13.47
2018-09-17T02:00:34.264Z,12.27
2018-09-17T02:01:05.405Z,9.93
2018-09-17T02:01:36.526Z,10.73
2018-09-17T02:02:07.648Z,9.97
2018-09-17T02:02:38.782Z,9.90
2018-09-17T02:03:09.890Z,11.47
2018-09-17T02:03:41.031Z,10.38
2018-09-17T02:04:12.143Z,10.40
2018-09-17T02:04:43.277Z,13.35
2018-09-17T02:05:14.399Z,10.57
2018-09-17T02:05:45.553Z,13.17
2018-09-17T02:06:16.689Z,11.17
2018-09-17T02:06:47.820Z,11.60
2018-09-17T02:07:18.922Z,11.60
2018-09-17T02:07:50.043Z,10.40
2018-09-17T02:08:21.177Z,11.43
2018-09-17T02:08:52.378Z,14.10
2018-09-17T02:09:23.471Z,11.80
2018-09-17T02:09:54.600Z,11.93
2018-09-17T02:10:25.742Z,11.97
2018-09-17T02:10:56.855Z,10.90
2018-09-17T02:11:28.024Z,11.03
2018-09-17T02:11:59.193Z,10.83
2018-09-17T02:12:30.350Z,11.20
2018-09-17T02:13:01.528Z,11.63
2018-09-17T02:13:32.657Z,10.77
2018-09-17T02:14:03.798Z,11.63
2018-09-17T02:14:34.921Z,10.43
2018-09-17T02:15:06.036Z,10.17
2018-09-17T02:15:37.174Z,10.20
2018-09-17T02:16:08.308Z,10.67
2018-09-17T02:16:39.424Z,11.80
2018-09-17T02:17:10.580Z,11.53
2018-09-17T02:17:41.726Z,10.37
2018-09-17T02:18:12.849Z,10.20
2018-09-17T02:18:43.969Z,10.23
2018-09-17T02:19:15.106Z,10.70
2018-09-17T02:19:46.246Z,10.43
2018-09-17T02:20:17.379Z,10.80
2018-09-17T02:20:49.099Z,9.93
2018-09-17T02:21:20.221Z,10.63
2018-09-17T02:21:51.906Z,11.40
2018-09-17T02:22:23.078Z,9.80
2018-09-17T02:22:54.204Z,13.53
2018-09-17T02:23:25.320Z,12.43
2018-09-17T02:23:56.476Z,12.47
2018-09-17T02:24:27.626Z,11.30
2018-09-17T02:24:58.740Z,10.10
2018-09-17T02:25:29.864Z,10.53
2018-09-17T02:26:00.984Z,10.87
2018-09-17T02:26:32.133Z,12.70
2018-09-17T02:27:03.285Z,10.77
2018-09-17T02:27:34.392Z,11.20
2018-09-17T02:28:05.530Z,11.00
2018-09-17T02:28:36.648Z,11.80
2018-09-17T02:29:07.762Z,11.00
2018-09-17T02:29:38.959Z,10.60
2018-09-17T02:30:10.156Z,12.03
2018-09-17T02:30:41.313Z,12.67
2018-09-17T02:31:12.439Z,11.43
2018-09-17T02:31:43.554Z,12.23
2018-09-17T02:32:14.694Z,11.63
2018-09-17T02:32:45.811Z,11.27
2018-09-17T02:33:16.989Z,13.93
2018-09-17T02:33:48.120Z,11.13
2018-09-17T02:34:19.236Z,12.00
2018-09-17T02:34:50.353Z,10.70
2018-09-17T02:35:21.486Z,12.50
2018-09-17T02:35:52.598Z,10.93
2018-09-17T02:36:23.747Z,11.00
2018-09-17T02:36:54.855Z,11.10
2018-09-17T02:37:25.984Z,12.30
2018-09-17T02:37:57.125Z,10.10
2018-09-17T02:38:28.251Z,10.77
2018-09-17T02:38:59.376Z,11.20
2018-09-17T02:39:30.487Z,10.87
2018-09-17T02:40:01.627Z,11.03
2018-09-17T02:40:32.765Z,12.43
2018-09-17T02:41:03.919Z,12.37
2018-09-17T02:41:35.033Z,10.80
2018-09-17T02:42:06.149Z,12.53
2018-09-17T02:42:37.263Z,10.57
2018-09-17T02:43:08.371Z,10.90
2018-09-17T02:43:39.480Z,11.17
2018-09-17T02:44:10.592Z,10.27
2018-09-17T02:44:41.726Z,12.40
2018-09-17T02:45:12.843Z,10.90
2018-09-17T02:45:43.958Z,11.60
2018-09-17T02:46:15.106Z,11.33
2018-09-17T02:46:46.215Z,12.17
2018-09-17T02:47:17.333Z,11.70
2018-09-17T02:47:48.445Z,11.77
2018-09-17T02:48:19.585Z,11.57
2018-09-17T02:48:50.699Z,11.07
2018-09-17T02:49:21.896Z,12.83
2018-09-17T02:49:53.018Z,10.90
2018-09-17T02:50:24.184Z,10.60
2018-09-17T02:50:55.331Z,12.50
2018-09-17T02:51:26.489Z,10.83
2018-09-17T02:51:57.604Z,10.20
2018-09-17T02:52:28.724Z,10.97
2018-09-17T02:52:59.836Z,13.03
2018-09-17T02:53:31.019Z,12.60
2018-09-17T02:54:02.114Z,13.17
2018-09-17T02:54:33.224Z,10.73
2018-09-17T02:55:04.334Z,13.70
2018-09-17T02:55:35.517Z,14.53
2018-09-17T02:56:06.625Z,12.40
2018-09-17T02:56:38.592Z,14.80
2018-09-17T02:57:09.724Z,13.63
2018-09-17T02:57:40.852Z,13.60
2018-09-17T02:58:12.005Z,14.33
2018-09-17T02:58:43.132Z,14.80
2018-09-17T02:59:14.241Z,14.00
2018-09-17T02:59:45.356Z,15.73
2018-09-17T03:00:16.480Z,14.50
2018-09-17T03:00:47.596Z,14.10
2018-09-17T03:01:18.730Z,15.43
2018-09-17T03:01:49.853Z,13.37
2018-09-17T03:02:21.035Z,14.87
2018-09-17T03:02:52.169Z,12.90
2018-09-17T03:03:23.290Z,13.40
2018-09-17T03:03:54.399Z,14.07
2018-09-17T03:04:25.542Z,14.60
2018-09-17T03:04:56.685Z,13.87
2018-09-17T03:05:27.799Z,13.80
2018-09-17T03:05:58.920Z,14.73
2018-09-17T03:06:30.056Z,16.33
2018-09-17T03:07:01.177Z,16.73
2018-09-17T03:07:32.345Z,14.90
2018-09-17T03:08:03.445Z,14.80
2018-09-17T03:08:34.565Z,14.73
2018-09-17T03:09:05.676Z,15.17
2018-09-17T03:09:36.851Z,17.70
2018-09-17T03:10:07.994Z,14.78
2018-09-17T03:10:39.133Z,15.23
2018-09-17T03:11:10.260Z,13.77
2018-09-17T03:11:41.381Z,15.50
2018-09-17T03:12:12.529Z,18.27
2018-09-17T03:12:43.659Z,14.97
2018-09-17T03:13:14.804Z,14.23
2018-09-17T03:13:45.950Z,13.90
2018-09-17T03:14:17.067Z,15.53
2018-09-17T03:14:48.203Z,13.63
2018-09-17T03:15:19.315Z,15.90
2018-09-17T03:15:50.453Z,15.17
2018-09-17T03:16:21.582Z,17.43
2018-09-17T03:16:52.710Z,13.50
2018-09-17T03:17:23.875Z,16.27
2018-09-17T03:17:55.048Z,15.17
2018-09-17T03:18:26.194Z,13.60
2018-09-17T03:18:57.332Z,13.73
2018-09-17T03:19:28.478Z,15.27
2018-09-17T03:19:59.586Z,14.73
2018-09-17T03:20:30.718Z,16.23
2018-09-17T03:21:01.831Z,18.20
2018-09-17T03:21:32.953Z,16.27
2018-09-17T03:22:04.074Z,15.97
2018-09-17T03:22:35.214Z,16.20
2018-09-17T03:23:06.375Z,14.70
2018-09-17T03:23:37.516Z,17.00
2018-09-17T03:24:08.663Z,15.47
2018-09-17T03:24:39.871Z,15.53
2018-09-17T03:25:10.967Z,16.07
2018-09-17T03:25:42.097Z,19.87
2018-09-17T03:26:13.294Z,14.90
2018-09-17T03:26:44.425Z,18.67
2018-09-17T03:27:15.549Z,16.70
2018-09-17T03:27:46.671Z,15.37
2018-09-17T03:28:17.803Z,16.10
2018-09-17T03:28:48.920Z,16.20
2018-09-17T03:29:20.048Z,14.65
2018-09-17T03:29:51.211Z,14.38
2018-09-17T03:30:22.326Z,14.65
2018-09-17T03:30:53.451Z,13.77
2018-09-17T03:31:24.590Z,13.30
2018-09-17T03:31:55.762Z,16.37
2018-09-17T03:32:26.909Z,16.97
2018-09-17T03:32:58.043Z,17.60
2018-09-17T03:33:29.197Z,16.03
2018-09-17T03:34:00.311Z,17.30
2018-09-17T03:34:31.419Z,17.57
2018-09-17T03:35:02.529Z,16.30
2018-09-17T03:35:33.639Z,16.70
2018-09-17T03:36:04.777Z,17.00
2018-09-17T03:36:35.908Z,19.80
2018-09-17T03:37:07.064Z,19.20
2018-09-17T03:37:38.183Z,19.23
2018-09-17T03:38:09.286Z,23.53
2018-09-17T03:38:40.439Z,22.37
2018-09-17T03:39:11.604Z,20.90
2018-09-17T03:39:42.879Z,19.53
2018-09-17T03:40:13.984Z,21.10
2018-09-17T03:40:45.088Z,23.90
2018-09-17T03:41:16.210Z,20.63
2018-09-17T03:41:47.336Z,20.57
2018-09-17T03:42:18.523Z,21.07
2018-09-17T03:42:49.676Z,21.13
2018-09-17T03:43:20.788Z,21.93
2018-09-17T03:43:51.927Z,20.37
2018-09-17T03:44:23.079Z,22.23
2018-09-17T03:44:54.212Z,21.47
2018-09-17T03:45:25.334Z,21.33
2018-09-17T03:45:56.448Z,23.43
2018-09-17T03:46:27.652Z,23.50
2018-09-17T03:46:58.787Z,24.03
2018-09-17T03:47:29.933Z,23.83
2018-09-17T03:48:01.072Z,23.83
2018-09-17T03:48:32.214Z,24.63
2018-09-17T03:49:03.342Z,24.73
2018-09-17T03:49:34.517Z,23.03
2018-09-17T03:50:05.645Z,25.00
2018-09-17T03:50:36.775Z,23.87
2018-09-17T03:51:07.913Z,24.12
2018-09-17T03:51:39.034Z,25.17
2018-09-17T03:52:10.158Z,27.95
2018-09-17T03:52:41.283Z,28.38
2018-09-17T03:53:12.408Z,28.12
2018-09-17T03:53:43.523Z,28.25
2018-09-17T03:54:14.681Z,29.00
2018-09-17T03:54:45.934Z,29.15
2018-09-17T03:55:17.071Z,29.10
2018-09-17T03:55:48.204Z,28.55
2018-09-17T03:56:19.329Z,30.10
2018-09-17T03:56:50.530Z,28.65
2018-09-17T03:57:21.694Z,28.37
2018-09-17T03:57:52.807Z,28.13
2018-09-17T03:58:23.936Z,28.15
2018-09-17T03:58:55.057Z,27.93
2018-09-17T03:59:26.185Z,30.07
2018-09-17T03:59:57.320Z,29.73
2018-09-17T04:00:28.472Z,25.95
2018-09-17T04:00:59.631Z,28.30
2018-09-17T04:01:30.748Z,28.80
2018-09-17T04:02:01.879Z,31.42
2018-09-17T04:02:33.024Z,30.00
2018-09-17T04:03:04.149Z,31.03
2018-09-17T04:03:35.326Z,30.90
2018-09-17T04:04:06.453Z,29.50
2018-09-17T04:04:37.579Z,30.85
2018-09-17T04:05:08.721Z,30.05
2018-09-17T04:05:39.897Z,31.00
2018-09-17T04:06:11.016Z,30.02
2018-09-17T04:06:42.148Z,29.47
2018-09-17T04:07:13.276Z,29.00
2018-09-17T04:07:44.413Z,30.47
2018-09-17T04:08:15.579Z,31.03
2018-09-17T04:08:46.718Z,29.50
2018-09-17T04:09:17.844Z,30.20
2018-09-17T04:09:49.028Z,31.17
2018-09-17T04:10:20.152Z,34.20
2018-09-17T04:10:51.275Z,32.10
2018-09-17T04:11:22.419Z,32.43
2018-09-17T04:11:53.569Z,30.83
2018-09-17T04:12:24.724Z,29.50
2018-09-17T04:12:55.875Z,31.33
2018-09-17T04:13:27.018Z,33.07
2018-09-17T04:13:58.134Z,34.07
2018-09-17T04:14:29.266Z,31.48
2018-09-17T04:15:00.458Z,34.90
2018-09-17T04:15:31.597Z,33.65
2018-09-17T04:16:02.739Z,33.77
2018-09-17T04:16:33.858Z,34.63
2018-09-17T04:17:05.006Z,34.73
2018-09-17T04:17:36.136Z,35.43
2018-09-17T04:18:07.534Z,36.68
2018-09-17T04:18:38.652Z,35.93
2018-09-17T04:19:09.802Z,33.60
2018-09-17T04:19:40.910Z,37.83
2018-09-17T04:20:12.054Z,40.23
2018-09-17T04:20:43.211Z,37.00
2018-09-17T04:21:14.338Z,39.40
2018-09-17T04:21:45.447Z,39.00
2018-09-17T04:22:16.566Z,40.20
2018-09-17T04:22:47.697Z,40.25
2018-09-17T04:23:18.831Z,39.47
2018-09-17T04:23:49.950Z,38.97
2018-09-17T04:24:21.092Z,40.20
2018-09-17T04:24:52.219Z,42.05
2018-09-17T04:25:24.221Z,40.60
2018-09-17T04:25:55.377Z,42.10
2018-09-17T04:26:26.487Z,40.17
2018-09-17T04:26:57.639Z,40.90
2018-09-17T04:27:28.764Z,41.42
2018-09-17T04:27:59.873Z,41.07
2018-09-17T04:28:30.992Z,46.00
2018-09-17T04:29:02.116Z,42.33
2018-09-17T04:29:33.231Z,38.73
2018-09-17T04:30:04.365Z,39.00
2018-09-17T04:30:35.528Z,39.48
2018-09-17T04:31:06.702Z,40.48
2018-09-17T04:31:37.904Z,43.17
2018-09-17T04:32:09.005Z,39.45
2018-09-17T04:32:40.143Z,41.23
2018-09-17T04:33:11.323Z,44.25
2018-09-17T04:33:42.439Z,40.40
2018-09-17T04:34:13.571Z,39.58
2018-09-17T04:34:44.732Z,40.70
2018-09-17T04:35:15.873Z,42.62
2018-09-17T04:35:47.031Z,39.63
2018-09-17T04:36:18.140Z,41.43
2018-09-17T04:36:49.297Z,38.90
2018-09-17T04:37:20.429Z,42.23
2018-09-17T04:37:51.545Z,38.57
2018-09-17T04:38:22.692Z,39.40
2018-09-17T04:38:53.870Z,40.53
2018-09-17T04:39:25.053Z,41.47
2018-09-17T04:39:56.247Z,39.73
2018-09-17T04:40:27.317Z,39.00
2018-09-17T04:40:58.435Z,42.00
2018-09-17T04:41:29.539Z,38.33
2018-09-17T04:42:00.676Z,38.78
2018-09-17T04:42:31.796Z,39.47
2018-09-17T04:43:02.954Z,38.37
2018-09-17T04:43:34.088Z,34.10
2018-09-17T04:44:05.270Z,38.37
2018-09-17T04:44:36.391Z,40.70
2018-09-17T04:45:07.498Z,37.23
2018-09-17T04:45:38.634Z,36.30
2018-09-17T04:46:09.743Z,36.67
2018-09-17T04:46:40.896Z,35.83
2018-09-17T04:47:12.062Z,36.27
2018-09-17T04:47:43.189Z,38.13
2018-09-17T04:48:14.319Z,33.80
2018-09-17T04:48:45.446Z,37.35
2018-09-17T04:49:16.568Z,38.00
2018-09-17T04:49:47.694Z,35.60
2018-09-17T04:50:18.835Z,35.70
2018-09-17T04:50:49.971Z,34.13
2018-09-17T04:51:21.092Z,30.30
2018-09-17T04:51:52.223Z,32.87
2018-09-17T04:52:23.402Z,32.77
2018-09-17T04:52:54.529Z,35.43
2018-09-17T04:53:25.662Z,35.33
2018-09-17T04:53:56.795Z,35.63
2018-09-17T04:54:27.903Z,31.90
2018-09-17T04:54:59.046Z,32.83
2018-09-17T04:55:30.170Z,33.27
2018-09-17T04:56:01.303Z,34.10
2018-09-17T04:56:32.423Z,37.43
2018-09-17T04:57:03.541Z,37.53
2018-09-17T04:57:34.688Z,35.60
2018-09-17T04:58:05.804Z,34.57
2018-09-17T04:58:36.969Z,34.17
2018-09-17T04:59:08.102Z,40.13
2018-09-17T04:59:39.219Z,36.93
2018-09-17T05:00:10.351Z,37.77
2018-09-17T05:00:41.457Z,35.77
2018-09-17T05:01:12.567Z,35.87
2018-09-17T05:01:43.684Z,36.13
2018-09-17T05:02:14.805Z,35.73
2018-09-17T05:02:45.960Z,41.17
2018-09-17T05:03:17.099Z,33.73
2018-09-17T05:03:48.246Z,35.70
2018-09-17T05:04:19.357Z,35.43
2018-09-17T05:04:50.462Z,36.27
2018-09-17T05:05:21.584Z,34.60
2018-09-17T05:05:52.687Z,33.50
2018-09-17T05:06:23.804Z,35.53
2018-09-17T05:06:54.943Z,36.07
2018-09-17T05:07:26.168Z,37.40
2018-09-17T05:07:57.239Z,37.93
2018-09-17T05:08:28.375Z,38.07
2018-09-17T05:08:59.529Z,37.47
2018-09-17T05:09:30.659Z,35.27
2018-09-17T05:10:01.770Z,35.40
2018-09-17T05:10:32.883Z,35.63
2018-09-17T05:11:04.094Z,34.67
2018-09-17T05:11:35.204Z,35.60
2018-09-17T05:12:06.340Z,36.10
2018-09-17T05:12:37.446Z,34.93
2018-09-17T05:13:08.634Z,36.47
2018-09-17T05:13:39.730Z,36.57
2018-09-17T05:14:10.844Z,33.93
2018-09-17T05:14:41.984Z,34.00
2018-09-17T05:15:13.109Z,36.47
2018-09-17T05:15:44.224Z,33.00
2018-09-17T05:16:15.380Z,34.07
2018-09-17T05:16:46.537Z,34.07
2018-09-17T05:17:17.698Z,36.33
2018-09-17T05:17:48.845Z,31.53
2018-09-17T05:18:19.960Z,30.53
2018-09-17T05:18:51.089Z,33.50
2018-09-17T05:19:22.207Z,31.17
2018-09-17T05:19:53.326Z,29.53
2018-09-17T05:20:24.462Z,31.23
2018-09-17T05:20:55.581Z,31.87
2018-09-17T05:21:26.729Z,32.60
2018-09-17T05:21:57.906Z,31.47
2018-09-17T05:22:29.044Z,30.77
2018-09-17T05:23:00.164Z,31.30
2018-09-17T05:23:31.284Z,31.60
2018-09-17T05:24:02.432Z,30.33
2018-09-17T05:24:33.554Z,30.67
2018-09-17T05:25:04.661Z,30.13
2018-09-17T05:25:35.780Z,31.67
2018-09-17T05:26:06.900Z,31.93
2018-09-17T05:26:38.088Z,30.40
2018-09-17T05:27:09.232Z,30.23
2018-09-17T05:27:40.348Z,30.30
2018-09-17T05:28:11.465Z,30.67
2018-09-17T05:28:42.585Z,31.97
2018-09-17T05:29:13.719Z,33.20
2018-09-17T05:29:44.829Z,29.60
2018-09-17T05:30:15.941Z,32.00
2018-09-17T05:30:47.055Z,31.63
2018-09-17T05:31:18.206Z,30.67
2018-09-17T05:31:49.348Z,30.53
2018-09-17T05:32:20.487Z,34.77
2018-09-17T05:32:51.633Z,31.30
2018-09-17T05:33:22.750Z,33.67
2018-09-17T05:33:53.864Z,32.07
2018-09-17T05:34:24.999Z,32.97
2018-09-17T05:34:56.167Z,32.70
2018-09-17T05:35:27.292Z,35.03
2018-09-17T05:35:58.440Z,33.47
2018-09-17T05:36:29.555Z,33.47
2018-09-17T05:37:00.687Z,33.47
2018-09-17T05:37:31.818Z,33.93
2018-09-17T05:38:02.978Z,32.30
2018-09-17T05:38:34.198Z,33.50
2018-09-17T05:39:05.321Z,35.47
2018-09-17T05:39:36.427Z,35.40
2018-09-17T05:40:07.584Z,34.70
2018-09-17T05:40:38.725Z,34.17
2018-09-17T05:41:09.843Z,34.33
2018-09-17T05:41:40.947Z,33.43
2018-09-17T05:42:12.051Z,33.57
2018-09-17T05:42:43.165Z,34.87
2018-09-17T05:43:14.280Z,33.53
2018-09-17T05:43:45.413Z,36.50
2018-09-17T05:44:16.571Z,34.90
2018-09-17T05:44:47.657Z,36.37
2018-09-17T05:45:18.874Z,34.77
2018-09-17T05:45:49.983Z,38.70
2018-09-17T05:46:21.114Z,37.33
2018-09-17T05:46:52.233Z,37.70
2018-09-17T05:47:23.397Z,39.93
2018-09-17T05:47:54.542Z,39.43
2018-09-17T05:48:25.656Z,40.07
2018-09-17T05:48:56.775Z,40.77
2018-09-17T05:49:27.884Z,38.63
2018-09-17T05:49:59.000Z,39.50
2018-09-17T05:50:30.174Z,40.40
2018-09-17T05:51:01.293Z,40.13
2018-09-17T05:51:32.419Z,41.20
2018-09-17T05:52:03.553Z,42.77
2018-09-17T05:52:34.672Z,40.37
2018-09-17T05:53:05.808Z,41.30
2018-09-17T05:53:37.869Z,40.77
2018-09-17T05:54:08.990Z,40.10
2018-09-17T05:54:40.125Z,40.03
2018-09-17T05:55:11.235Z,41.00
2018-09-17T05:55:42.352Z,41.57
2018-09-17T05:56:13.595Z,42.80
2018-09-17T05:56:44.704Z,40.17
2018-09-17T05:57:15.850Z,41.87
2018-09-17T05:57:47.064Z,41.30
2018-09-17T05:58:18.211Z,40.80
2018-09-17T05:58:49.341Z,40.70
2018-09-17T05:59:20.466Z,38.57
2018-09-17T05:59:51.614Z,44.43
2018-09-17T06:00:22.745Z,39.20
2018-09-17T06:00:53.878Z,39.87
2018-09-17T06:01:25.023Z,38.47
2018-09-17T06:01:56.132Z,37.57
2018-09-17T06:02:27.255Z,39.10
2018-09-17T06:02:58.418Z,35.73
2018-09-17T06:03:29.563Z,37.83
2018-09-17T06:04:01.310Z,39.97
2018-09-17T06:04:32.462Z,41.60
2018-09-17T06:05:03.616Z,39.77
2018-09-17T06:05:34.829Z,37.07
2018-09-17T06:06:05.982Z,36.67
2018-09-17T06:06:37.083Z,37.37
2018-09-17T06:07:08.230Z,37.90
2018-09-17T06:07:39.378Z,34.97
2018-09-17T06:08:10.495Z,36.13
2018-09-17T06:09:19.040Z,33.80
2018-09-17T06:09:50.241Z,34.63
2018-09-17T06:10:21.304Z,37.13
2018-09-17T06:10:52.402Z,37.33
2018-09-17T06:11:23.552Z,39.27
2018-09-17T06:11:54.745Z,38.83
2018-09-17T06:12:25.772Z,39.27
2018-09-17T06:12:56.924Z,38.50
2018-09-17T06:13:28.079Z,39.07
2018-09-17T06:13:59.235Z,38.37
2018-09-17T06:14:30.373Z,40.13
2018-09-17T06:15:01.553Z,37.57
2018-09-17T06:15:32.677Z,37.73
2018-09-17T06:16:03.794Z,39.10
2018-09-17T06:16:34.932Z,35.63
2018-09-17T06:17:06.058Z,40.07
2018-09-17T06:17:37.207Z,36.57
2018-09-17T06:18:08.339Z,39.40
2018-09-17T06:18:39.493Z,37.77
2018-09-17T06:19:10.598Z,39.90
2018-09-17T06:19:41.706Z,40.00
2018-09-17T06:20:12.844Z,39.93
2018-09-17T06:20:43.955Z,40.50
2018-09-17T06:21:15.095Z,38.33
2018-09-17T06:21:46.238Z,39.10
2018-09-17T06:22:17.393Z,37.10
2018-09-17T06:22:48.581Z,35.80
2018-09-17T06:23:19.765Z,36.53
2018-09-17T06:23:50.838Z,36.03
2018-09-17T06:24:21.960Z,35.23
2018-09-17T06:24:53.127Z,36.10
2018-09-17T06:25:24.270Z,36.27
2018-09-17T06:25:55.440Z,34.83
2018-09-17T06:26:26.585Z,34.83
2018-09-17T06:26:57.762Z,34.33
2018-09-17T06:27:28.870Z,33.80
2018-09-17T06:28:00.080Z,32.50
2018-09-17T06:28:31.214Z,39.30
2018-09-17T06:29:02.332Z,33.90
2018-09-17T06:29:33.463Z,34.03
2018-09-17T06:30:04.589Z,33.43
2018-09-17T06:30:35.757Z,31.87
2018-09-17T06:31:06.937Z,32.63
2018-09-17T06:31:38.079Z,32.67
2018-09-17T06:32:09.216Z,31.23
2018-09-17T06:32:40.376Z,32.20
2018-09-17T06:33:11.500Z,32.47
2018-09-17T06:33:42.647Z,32.77
2018-09-17T06:34:13.756Z,31.77
2018-09-17T06:34:44.883Z,32.00
2018-09-17T06:35:16.008Z,30.90
2018-09-17T06:35:47.131Z,33.90
2018-09-17T06:36:18.297Z,31.57
2018-09-17T06:36:49.408Z,31.80
2018-09-17T06:37:20.532Z,31.53
2018-09-17T06:37:51.668Z,32.40
2018-09-17T06:38:22.791Z,32.00
2018-09-17T06:38:53.952Z,33.23
2018-09-17T06:39:25.070Z,33.57
2018-09-17T06:39:56.195Z,31.87
2018-09-17T06:40:27.360Z,31.63
2018-09-17T06:40:58.510Z,31.67
2018-09-17T06:41:29.650Z,33.40
2018-09-17T06:42:00.763Z,33.20